Oscoda, Michigan
Current Conditions -  °F | °C
As of 3:13 PM on Sunday 25 Jan 2015 (Local Time) from KOSC Reporting Station
Light Snow Light Snow  
Wind Chill:   Ceiling: 2400
Heat Index: 18°   Visibility: 7mi
Dew Point: 10°   Wind: 10mph
Humidity: 72%   Direction: 20°NNE
Pressure: 30.02"   Gusts: 16mph
Location:  44.42°N, 83.33°W
Report Text: KOSC 252013Z AUTO 02009G14KT 7SM -SN OVC024 M07/M12 A3002 RMK AO2 T10781121
Loading
Personal Weather Stations






























Interactive Weather Map New forecast layout! Learn more

10-Day Weather Forecast

Advertisements
Track Severe Weather on mobile